sensor_id;sensor_type;location;lat;lon;timestamp;pressure;altitude;pressure_sealevel;temperature;humidity
77011;BME280;65945;53.148;17.956;2023-04-24T00:01:52;100117.61;;;11.95;79.17
77011;BME280;65945;53.148;17.956;2023-04-24T00:04:19;100114.02;;;11.95;79.35
77011;BME280;65945;53.148;17.956;2023-04-24T00:06:45;100115.38;;;11.94;79.39
77011;BME280;65945;53.148;17.956;2023-04-24T00:09:15;100113.77;;;11.93;79.35
77011;BME280;65945;53.148;17.956;2023-04-24T00:11:42;100111.46;;;11.92;79.43
77011;BME280;65945;53.148;17.956;2023-04-24T00:14:09;100109.45;;;11.90;79.46
77011;BME280;65945;53.148;17.956;2023-04-24T00:16:35;100103.77;;;11.89;79.79
77011;BME280;65945;53.148;17.956;2023-04-24T00:19:02;100101.62;;;11.87;80.18
77011;BME280;65945;53.148;17.956;2023-04-24T00:21:28;100098.48;;;11.85;80.11
77011;BME280;65945;53.148;17.956;2023-04-24T00:23:56;100095.73;;;11.85;80.20
77011;BME280;65945;53.148;17.956;2023-04-24T00:26:22;100092.11;;;11.84;80.35
77011;BME280;65945;53.148;17.956;2023-04-24T00:28:49;100095.16;;;11.84;80.20
77011;BME280;65945;53.148;17.956;2023-04-24T00:31:16;100093.17;;;11.84;80.04
77011;BME280;65945;53.148;17.956;2023-04-24T00:33:42;100092.11;;;11.84;79.85
77011;BME280;65945;53.148;17.956;2023-04-24T00:36:09;100089.45;;;11.85;80.09
77011;BME280;65945;53.148;17.956;2023-04-24T00:38:36;100083.31;;;11.85;80.40
77011;BME280;65945;53.148;17.956;2023-04-24T00:41:03;100082.08;;;11.85;80.49
77011;BME280;65945;53.148;17.956;2023-04-24T00:43:30;100079.71;;;11.85;80.42
77011;BME280;65945;53.148;17.956;2023-04-24T00:45:57;100073.58;;;11.84;80.27
77011;BME280;65945;53.148;17.956;2023-04-24T00:48:24;100069.44;;;11.82;80.48
77011;BME280;65945;53.148;17.956;2023-04-24T00:50:51;100072.63;;;11.79;80.41
77011;BME280;65945;53.148;17.956;2023-04-24T00:53:18;100075.76;;;11.78;80.21
77011;BME280;65945;53.148;17.956;2023-04-24T00:55:45;100076.60;;;11.79;80.24
77011;BME280;65945;53.148;17.956;2023-04-24T00:58:12;100074.92;;;11.79;80.22
77011;BME280;65945;53.148;17.956;2023-04-24T01:00:39;100072.55;;;11.80;80.22
77011;BME280;65945;53.148;17.956;2023-04-24T01:03:06;100073.93;;;11.81;80.21
77011;BME280;65945;53.148;17.956;2023-04-24T01:05:33;100071.94;;;11.80;80.22
77011;BME280;65945;53.148;17.956;2023-04-24T01:08:01;100065.35;;;11.79;80.27
77011;BME280;65945;53.148;17.956;2023-04-24T01:10:29;100067.57;;;11.79;80.29
77011;BME280;65945;53.148;17.956;2023-04-24T01:12:57;100066.49;;;11.79;80.44
77011;BME280;65945;53.148;17.956;2023-04-24T01:15:24;100065.65;;;11.77;80.39
77011;BME280;65945;53.148;17.956;2023-04-24T01:17:51;100065.86;;;11.76;80.40
77011;BME280;65945;53.148;17.956;2023-04-24T01:20:17;100063.17;;;11.75;80.53
77011;BME280;65945;53.148;17.956;2023-04-24T01:22:44;100060.12;;;11.74;80.46
77011;BME280;65945;53.148;17.956;2023-04-24T01:25:11;100055.12;;;11.73;80.79
77011;BME280;65945;53.148;17.956;2023-04-24T01:27:37;100049.21;;;11.71;80.77
77011;BME280;65945;53.148;17.956;2023-04-24T01:30:06;100050.95;;;11.69;80.76
77011;BME280;65945;53.148;17.956;2023-04-24T01:32:33;100050.02;;;11.67;81.11
77011;BME280;65945;53.148;17.956;2023-04-24T01:35:00;100054.23;;;11.65;80.85
77011;BME280;65945;53.148;17.956;2023-04-24T01:37:27;100053.68;;;11.65;80.81
77011;BME280;65945;53.148;17.956;2023-04-24T01:39:54;100050.70;;;11.65;81.12
77011;BME280;65945;53.148;17.956;2023-04-24T01:42:21;100053.38;;;11.65;81.26
77011;BME280;65945;53.148;17.956;2023-04-24T01:44:48;100051.31;;;11.64;81.37
77011;BME280;65945;53.148;17.956;2023-04-24T01:47:15;100048.55;;;11.65;81.51
77011;BME280;65945;53.148;17.956;2023-04-24T01:49:41;100048.63;;;11.64;81.34
77011;BME280;65945;53.148;17.956;2023-04-24T01:52:08;100046.13;;;11.62;81.25
77011;BME280;65945;53.148;17.956;2023-04-24T01:54:34;100048.64;;;11.61;81.28
77011;BME280;65945;53.148;17.956;2023-04-24T01:57:02;100045.02;;;11.59;81.28
77011;BME280;65945;53.148;17.956;2023-04-24T01:59:29;100047.17;;;11.58;81.35
77011;BME280;65945;53.148;17.956;2023-04-24T02:01:56;100043.57;;;11.58;81.43
77011;BME280;65945;53.148;17.956;2023-04-24T02:04:23;100048.23;;;11.57;81.43
77011;BME280;65945;53.148;17.956;2023-04-24T02:06:50;100045.64;;;11.57;81.51
77011;BME280;65945;53.148;17.956;2023-04-24T02:09:17;100043.34;;;11.57;81.56
77011;BME280;65945;53.148;17.956;2023-04-24T02:11:43;100043.59;;;11.58;81.84
77011;BME280;65945;53.148;17.956;2023-04-24T02:14:10;100039.98;;;11.60;81.72
77011;BME280;65945;53.148;17.956;2023-04-24T02:16:40;100036.55;;;11.60;81.61
77011;BME280;65945;53.148;17.956;2023-04-24T02:19:07;100035.48;;;11.60;81.61
77011;BME280;65945;53.148;17.956;2023-04-24T02:21:33;100030.20;;;11.61;81.76
77011;BME280;65945;53.148;17.956;2023-04-24T02:24:02;100024.30;;;11.61;81.87
77011;BME280;65945;53.148;17.956;2023-04-24T02:26:28;100024.47;;;11.61;81.93
77011;BME280;65945;53.148;17.956;2023-04-24T02:28:55;100021.55;;;11.61;81.96
77011;BME280;65945;53.148;17.956;2023-04-24T02:31:21;100019.11;;;11.61;81.99
77011;BME280;65945;53.148;17.956;2023-04-24T02:33:48;100023.86;;;11.61;81.93
77011;BME280;65945;53.148;17.956;2023-04-24T02:36:15;100026.70;;;11.62;81.96
77011;BME280;65945;53.148;17.956;2023-04-24T02:38:41;100022.64;;;11.62;82.06
77011;BME280;65945;53.148;17.956;2023-04-24T02:41:08;100019.34;;;11.61;82.10
77011;BME280;65945;53.148;17.956;2023-04-24T02:43:35;100017.80;;;11.62;82.13
77011;BME280;65945;53.148;17.956;2023-04-24T02:46:01;100009.54;;;11.61;82.21
77011;BME280;65945;53.148;17.956;2023-04-24T02:48:29;100004.95;;;11.61;82.19
77011;BME280;65945;53.148;17.956;2023-04-24T02:50:56;99999.60;;;11.61;82.38
77011;BME280;65945;53.148;17.956;2023-04-24T02:53:23;99994.31;;;11.62;82.55
77011;BME280;65945;53.148;17.956;2023-04-24T02:55:50;99998.38;;;11.62;82.62
77011;BME280;65945;53.148;17.956;2023-04-24T02:58:17;99999.06;;;11.63;82.54
77011;BME280;65945;53.148;17.956;2023-04-24T03:00:46;100003.48;;;11.65;82.40
77011;BME280;65945;53.148;17.956;2023-04-24T03:03:14;100004.87;;;11.67;82.47
77011;BME280;65945;53.148;17.956;2023-04-24T03:05:41;100006.71;;;11.69;82.25
77011;BME280;65945;53.148;17.956;2023-04-24T03:08:08;100010.17;;;11.71;82.33
77011;BME280;65945;53.148;17.956;2023-04-24T03:10:34;100010.57;;;11.73;82.33
77011;BME280;65945;53.148;17.956;2023-04-24T03:13:01;100011.19;;;11.75;82.40
77011;BME280;65945;53.148;17.956;2023-04-24T03:15:27;100008.06;;;11.77;82.29
77011;BME280;65945;53.148;17.956;2023-04-24T03:17:54;100011.76;;;11.78;82.19
77011;BME280;65945;53.148;17.956;2023-04-24T03:20:21;100015.27;;;11.80;82.30
77011;BME280;65945;53.148;17.956;2023-04-24T03:22:48;100020.19;;;11.81;82.06
77011;BME280;65945;53.148;17.956;2023-04-24T03:25:16;100020.27;;;11.81;82.16
77011;BME280;65945;53.148;17.956;2023-04-24T03:27:43;100018.89;;;11.82;82.18
77011;BME280;65945;53.148;17.956;2023-04-24T03:30:42;100017.91;;;11.84;82.20
77011;BME280;65945;53.148;17.956;2023-04-24T03:33:09;100019.00;;;11.85;82.12
77011;BME280;65945;53.148;17.956;2023-04-24T03:35:38;100021.91;;;11.86;81.95
77011;BME280;65945;53.148;17.956;2023-04-24T03:38:08;100022.83;;;11.87;82.04
77011;BME280;65945;53.148;17.956;2023-04-24T03:40:55;100027.37;;;11.89;81.98
77011;BME280;65945;53.148;17.956;2023-04-24T03:43:36;100026.45;;;11.90;82.14
77011;BME280;65945;53.148;17.956;2023-04-24T03:46:02;100023.55;;;11.91;82.23
77011;BME280;65945;53.148;17.956;2023-04-24T03:48:30;100015.90;;;11.92;82.14
77011;BME280;65945;53.148;17.956;2023-04-24T03:50:57;100010.48;;;11.93;82.40
77011;BME280;65945;53.148;17.956;2023-04-24T03:53:24;100012.61;;;11.94;82.49
77011;BME280;65945;53.148;17.956;2023-04-24T03:55:50;100017.00;;;11.96;82.43
77011;BME280;65945;53.148;17.956;2023-04-24T03:58:17;100012.48;;;11.96;82.28
77011;BME280;65945;53.148;17.956;2023-04-24T04:00:44;100008.43;;;11.98;82.30
77011;BME280;65945;53.148;17.956;2023-04-24T04:03:33;100005.14;;;12.01;82.31
77011;BME280;65945;53.148;17.956;2023-04-24T04:05:59;100001.17;;;12.02;82.61
77011;BME280;65945;53.148;17.956;2023-04-24T04:08:27;100000.17;;;12.01;82.95
77011;BME280;65945;53.148;17.956;2023-04-24T04:10:54;99993.50;;;11.98;83.13
77011;BME280;65945;53.148;17.956;2023-04-24T04:13:21;99989.42;;;11.96;83.13
77011;BME280;65945;53.148;17.956;2023-04-24T04:15:47;99992.17;;;11.94;82.96
77011;BME280;65945;53.148;17.956;2023-04-24T04:18:14;99993.32;;;11.94;82.92
77011;BME280;65945;53.148;17.956;2023-04-24T04:20:41;99995.38;;;11.94;83.06
77011;BME280;65945;53.148;17.956;2023-04-24T04:23:08;99991.09;;;11.94;83.00
77011;BME280;65945;53.148;17.956;2023-04-24T04:25:43;99986.20;;;11.95;83.20
77011;BME280;65945;53.148;17.956;2023-04-24T04:28:10;99981.53;;;11.95;83.29
77011;BME280;65945;53.148;17.956;2023-04-24T04:30:36;99985.49;;;11.94;83.29
77011;BME280;65945;53.148;17.956;2023-04-24T04:33:05;99978.23;;;11.93;83.37
77011;BME280;65945;53.148;17.956;2023-04-24T04:35:31;99975.77;;;11.92;83.91
77011;BME280;65945;53.148;17.956;2023-04-24T04:37:59;99978.83;;;11.90;83.69
77011;BME280;65945;53.148;17.956;2023-04-24T04:40:44;99981.20;;;11.92;83.57
77011;BME280;65945;53.148;17.956;2023-04-24T04:43:12;99984.98;;;11.96;83.52
77011;BME280;65945;53.148;17.956;2023-04-24T04:45:45;99984.31;;;12.00;83.44
77011;BME280;65945;53.148;17.956;2023-04-24T04:48:27;99982.58;;;12.04;83.33
77011;BME280;65945;53.148;17.956;2023-04-24T04:50:55;99983.13;;;12.07;83.52
77011;BME280;65945;53.148;17.956;2023-04-24T04:53:22;99978.92;;;12.11;83.45
77011;BME280;65945;53.148;17.956;2023-04-24T04:55:48;99975.73;;;12.13;84.18
77011;BME280;65945;53.148;17.956;2023-04-24T04:58:16;99970.29;;;12.15;84.03
77011;BME280;65945;53.148;17.956;2023-04-24T05:00:44;99964.64;;;12.20;83.48
77011;BME280;65945;53.148;17.956;2023-04-24T05:03:16;99964.73;;;12.26;83.66
77011;BME280;65945;53.148;17.956;2023-04-24T05:05:42;99966.06;;;12.32;83.42
77011;BME280;65945;53.148;17.956;2023-04-24T05:08:11;99966.23;;;12.37;83.83
77011;BME280;65945;53.148;17.956;2023-04-24T05:10:38;99960.35;;;12.40;83.75
77011;BME280;65945;53.148;17.956;2023-04-24T05:13:05;99962.73;;;12.45;83.63
77011;BME280;65945;53.148;17.956;2023-04-24T05:15:31;99961.45;;;12.51;83.66
77011;BME280;65945;53.148;17.956;2023-04-24T05:17:58;99959.02;;;12.55;83.54
77011;BME280;65945;53.148;17.956;2023-04-24T05:20:25;99962.16;;;12.60;83.48
77011;BME280;65945;53.148;17.956;2023-04-24T05:22:52;99960.42;;;12.66;83.50
77011;BME280;65945;53.148;17.956;2023-04-24T05:25:19;99957.20;;;12.71;83.81
77011;BME280;65945;53.148;17.956;2023-04-24T05:27:52;99957.06;;;12.77;83.77
77011;BME280;65945;53.148;17.956;2023-04-24T05:30:19;99954.39;;;12.83;83.85
77011;BME280;65945;53.148;17.956;2023-04-24T05:32:46;99951.02;;;12.90;83.72
77011;BME280;65945;53.148;17.956;2023-04-24T05:35:13;99956.10;;;13.01;83.52
77011;BME280;65945;53.148;17.956;2023-04-24T05:37:40;99960.20;;;13.14;83.31
77011;BME280;65945;53.148;17.956;2023-04-24T05:40:08;99959.59;;;13.33;83.31
77011;BME280;65945;53.148;17.956;2023-04-24T05:42:35;99959.64;;;13.53;83.10
77011;BME280;65945;53.148;17.956;2023-04-24T05:45:02;99955.61;;;13.73;82.79
77011;BME280;65945;53.148;17.956;2023-04-24T05:47:29;99965.09;;;13.88;82.13
77011;BME280;65945;53.148;17.956;2023-04-24T05:49:56;99967.14;;;13.98;81.30
77011;BME280;65945;53.148;17.956;2023-04-24T05:52:23;99960.51;;;14.04;80.77
77011;BME280;65945;53.148;17.956;2023-04-24T05:54:50;99959.65;;;14.09;80.53
77011;BME280;65945;53.148;17.956;2023-04-24T05:57:20;99956.03;;;14.12;79.98
77011;BME280;65945;53.148;17.956;2023-04-24T05:59:53;99950.11;;;14.13;79.53
77011;BME280;65945;53.148;17.956;2023-04-24T06:02:20;99953.86;;;14.15;79.55
77011;BME280;65945;53.148;17.956;2023-04-24T06:04:47;99953.55;;;14.18;79.32
77011;BME280;65945;53.148;17.956;2023-04-24T06:07:14;99960.68;;;14.20;79.26
77011;BME280;65945;53.148;17.956;2023-04-24T06:09:42;99958.29;;;14.24;79.27
77011;BME280;65945;53.148;17.956;2023-04-24T06:12:09;99956.60;;;14.29;79.22
77011;BME280;65945;53.148;17.956;2023-04-24T06:14:47;99958.18;;;14.38;79.10
77011;BME280;65945;53.148;17.956;2023-04-24T06:17:25;99957.52;;;14.45;78.68
77011;BME280;65945;53.148;17.956;2023-04-24T06:19:51;99949.55;;;14.53;78.44
77011;BME280;65945;53.148;17.956;2023-04-24T06:22:18;99941.06;;;14.60;77.84
77011;BME280;65945;53.148;17.956;2023-04-24T06:24:45;99942.48;;;14.67;77.91
77011;BME280;65945;53.148;17.956;2023-04-24T06:27:12;99934.11;;;14.75;77.68
77011;BME280;65945;53.148;17.956;2023-04-24T06:29:40;99932.89;;;14.86;77.40
77011;BME280;65945;53.148;17.956;2023-04-24T06:32:07;99933.14;;;15.02;77.07
77011;BME280;65945;53.148;17.956;2023-04-24T06:34:34;99936.17;;;15.17;76.71
77011;BME280;65945;53.148;17.956;2023-04-24T06:37:02;99932.08;;;15.28;76.38
77011;BME280;65945;53.148;17.956;2023-04-24T06:39:28;99933.39;;;15.37;75.62
77011;BME280;65945;53.148;17.956;2023-04-24T06:41:55;99928.74;;;15.43;75.58
77011;BME280;65945;53.148;17.956;2023-04-24T06:44:24;99923.08;;;15.49;75.69
77011;BME280;65945;53.148;17.956;2023-04-24T06:46:51;99923.40;;;15.54;75.23
77011;BME280;65945;53.148;17.956;2023-04-24T06:49:18;99925.11;;;15.59;75.18
77011;BME280;65945;53.148;17.956;2023-04-24T06:51:44;99922.84;;;15.63;74.86
77011;BME280;65945;53.148;17.956;2023-04-24T06:54:11;99923.35;;;15.66;74.89
77011;BME280;65945;53.148;17.956;2023-04-24T06:56:38;99918.98;;;15.71;74.31
77011;BME280;65945;53.148;17.956;2023-04-24T06:59:04;99922.48;;;15.74;73.55
77011;BME280;65945;53.148;17.956;2023-04-24T07:01:31;99922.65;;;15.79;73.62
77011;BME280;65945;53.148;17.956;2023-04-24T07:03:57;99919.59;;;15.85;73.16
77011;BME280;65945;53.148;17.956;2023-04-24T07:06:24;99920.06;;;15.91;72.26
77011;BME280;65945;53.148;17.956;2023-04-24T07:08:51;99924.38;;;15.97;72.15
77011;BME280;65945;53.148;17.956;2023-04-24T07:11:17;99924.50;;;16.06;71.61
77011;BME280;65945;53.148;17.956;2023-04-24T07:13:44;99923.86;;;16.14;72.04
77011;BME280;65945;53.148;17.956;2023-04-24T07:16:11;99923.42;;;16.24;71.56
77011;BME280;65945;53.148;17.956;2023-04-24T07:18:38;99922.01;;;16.32;71.24
77011;BME280;65945;53.148;17.956;2023-04-24T07:21:06;99922.95;;;16.41;71.08
77011;BME280;65945;53.148;17.956;2023-04-24T07:23:33;99919.77;;;16.51;70.82
77011;BME280;65945;53.148;17.956;2023-04-24T07:26:00;99917.30;;;16.57;70.43
77011;BME280;65945;53.148;17.956;2023-04-24T07:28:26;99918.77;;;16.63;69.90
77011;BME280;65945;53.148;17.956;2023-04-24T07:30:53;99916.86;;;16.67;69.68
77011;BME280;65945;53.148;17.956;2023-04-24T07:33:20;99915.33;;;16.71;69.17
77011;BME280;65945;53.148;17.956;2023-04-24T07:35:47;99914.49;;;16.74;68.28
77011;BME280;65945;53.148;17.956;2023-04-24T07:38:14;99917.41;;;16.80;68.26
77011;BME280;65945;53.148;17.956;2023-04-24T07:40:40;99915.77;;;16.86;67.71
77011;BME280;65945;53.148;17.956;2023-04-24T07:43:07;99913.05;;;16.94;67.15
77011;BME280;65945;53.148;17.956;2023-04-24T07:45:33;99912.06;;;17.01;66.80
77011;BME280;65945;53.148;17.956;2023-04-24T07:48:03;99912.38;;;17.11;66.69
77011;BME280;65945;53.148;17.956;2023-04-24T07:50:30;99912.64;;;17.22;66.16
77011;BME280;65945;53.148;17.956;2023-04-24T07:52:57;99913.21;;;17.34;65.69
77011;BME280;65945;53.148;17.956;2023-04-24T07:55:24;99909.63;;;17.45;64.76
77011;BME280;65945;53.148;17.956;2023-04-24T07:57:50;99911.93;;;17.55;65.04
77011;BME280;65945;53.148;17.956;2023-04-24T08:00:17;99917.06;;;17.66;64.65
77011;BME280;65945;53.148;17.956;2023-04-24T08:02:44;99915.81;;;17.75;64.19
77011;BME280;65945;53.148;17.956;2023-04-24T08:05:11;99913.77;;;17.84;63.80
77011;BME280;65945;53.148;17.956;2023-04-24T08:07:38;99906.38;;;17.90;63.53
77011;BME280;65945;53.148;17.956;2023-04-24T08:10:05;99906.88;;;18.00;63.14
77011;BME280;65945;53.148;17.956;2023-04-24T08:12:32;99912.97;;;18.08;62.61
77011;BME280;65945;53.148;17.956;2023-04-24T08:14:58;99909.49;;;18.19;62.87
77011;BME280;65945;53.148;17.956;2023-04-24T08:17:25;99910.80;;;18.30;61.86
77011;BME280;65945;53.148;17.956;2023-04-24T08:19:52;99911.90;;;18.40;60.95
77011;BME280;65945;53.148;17.956;2023-04-24T08:22:25;99911.85;;;18.51;60.72
77011;BME280;65945;53.148;17.956;2023-04-24T08:24:51;99902.89;;;18.63;60.79
77011;BME280;65945;53.148;17.956;2023-04-24T08:27:18;99902.88;;;18.77;59.88
77011;BME280;65945;53.148;17.956;2023-04-24T08:29:45;99903.33;;;18.90;60.09
77011;BME280;65945;53.148;17.956;2023-04-24T08:32:11;99902.52;;;19.04;59.35
77011;BME280;65945;53.148;17.956;2023-04-24T08:34:38;99897.14;;;19.15;59.28
77011;BME280;65945;53.148;17.956;2023-04-24T08:37:05;99898.23;;;19.24;58.52
77011;BME280;65945;53.148;17.956;2023-04-24T08:39:32;99898.73;;;19.29;57.78
77011;BME280;65945;53.148;17.956;2023-04-24T08:41:59;99899.02;;;19.30;57.17
77011;BME280;65945;53.148;17.956;2023-04-24T08:44:32;99895.61;;;19.30;56.70
77011;BME280;65945;53.148;17.956;2023-04-24T08:46:59;99890.20;;;19.30;57.37
77011;BME280;65945;53.148;17.956;2023-04-24T08:49:26;99893.13;;;19.30;57.27
77011;BME280;65945;53.148;17.956;2023-04-24T08:51:54;99894.86;;;19.32;57.19
77011;BME280;65945;53.148;17.956;2023-04-24T08:54:21;99892.10;;;19.34;56.80
77011;BME280;65945;53.148;17.956;2023-04-24T08:56:48;99892.88;;;19.37;56.87
77011;BME280;65945;53.148;17.956;2023-04-24T08:59:15;99893.08;;;19.41;55.79
77011;BME280;65945;53.148;17.956;2023-04-24T09:01:42;99891.02;;;19.43;55.79
77011;BME280;65945;53.148;17.956;2023-04-24T09:04:12;99891.05;;;19.50;56.03
77011;BME280;65945;53.148;17.956;2023-04-24T09:06:41;99892.45;;;19.56;55.61
77011;BME280;65945;53.148;17.956;2023-04-24T09:09:09;99898.23;;;19.60;55.71
77011;BME280;65945;53.148;17.956;2023-04-24T09:11:37;99897.83;;;19.64;55.13
77011;BME280;65945;53.148;17.956;2023-04-24T09:14:05;99902.16;;;19.66;55.36
77011;BME280;65945;53.148;17.956;2023-04-24T09:16:32;99905.80;;;19.70;55.44
77011;BME280;65945;53.148;17.956;2023-04-24T09:18:59;99903.00;;;19.73;55.18
77011;BME280;65945;53.148;17.956;2023-04-24T09:21:31;99905.54;;;19.79;55.06
77011;BME280;65945;53.148;17.956;2023-04-24T09:24:07;99909.05;;;19.84;54.77
77011;BME280;65945;53.148;17.956;2023-04-24T09:26:36;99906.05;;;19.86;54.41
77011;BME280;65945;53.148;17.956;2023-04-24T09:29:03;99906.83;;;19.86;54.50
77011;BME280;65945;53.148;17.956;2023-04-24T09:31:31;99903.11;;;19.85;54.10
77011;BME280;65945;53.148;17.956;2023-04-24T09:34:00;99901.83;;;19.84;54.43
77011;BME280;65945;53.148;17.956;2023-04-24T09:36:38;99904.95;;;19.88;54.75
77011;BME280;65945;53.148;17.956;2023-04-24T09:39:11;99898.02;;;19.93;54.12
77011;BME280;65945;53.148;17.956;2023-04-24T09:44:17;99888.85;;;19.96;53.98
77011;BME280;65945;53.148;17.956;2023-04-24T09:46:49;99884.82;;;20.01;54.12
77011;BME280;65945;53.148;17.956;2023-04-24T09:49:21;99884.86;;;20.05;53.73
77011;BME280;65945;53.148;17.956;2023-04-24T09:51:48;99880.38;;;20.07;53.40
77011;BME280;65945;53.148;17.956;2023-04-24T09:54:17;99878.33;;;20.08;53.65
77011;BME280;65945;53.148;17.956;2023-04-24T09:56:45;99876.93;;;20.14;53.21
77011;BME280;65945;53.148;17.956;2023-04-24T09:59:18;99879.06;;;20.15;52.94
77011;BME280;65945;53.148;17.956;2023-04-24T10:01:45;99880.25;;;20.14;52.70
77011;BME280;65945;53.148;17.956;2023-04-24T10:04:38;99882.20;;;20.11;52.27
77011;BME280;65945;53.148;17.956;2023-04-24T10:07:05;99875.42;;;20.07;52.41
77011;BME280;65945;53.148;17.956;2023-04-24T10:09:33;99869.30;;;20.07;52.58
77011;BME280;65945;53.148;17.956;2023-04-24T10:12:00;99865.38;;;20.13;52.57
77011;BME280;65945;53.148;17.956;2023-04-24T10:14:29;99860.41;;;20.20;52.29
77011;BME280;65945;53.148;17.956;2023-04-24T10:16:55;99863.73;;;20.27;52.06
77011;BME280;65945;53.148;17.956;2023-04-24T10:19:25;99862.19;;;20.35;51.68
77011;BME280;65945;53.148;17.956;2023-04-24T10:21:53;99860.39;;;20.45;51.98
77011;BME280;65945;53.148;17.956;2023-04-24T10:24:21;99851.98;;;20.58;51.75
77011;BME280;65945;53.148;17.956;2023-04-24T10:26:47;99858.48;;;20.73;51.52
77011;BME280;65945;53.148;17.956;2023-04-24T10:29:17;99861.57;;;20.86;51.37
77011;BME280;65945;53.148;17.956;2023-04-24T10:31:44;99857.36;;;20.96;51.29
77011;BME280;65945;53.148;17.956;2023-04-24T10:34:15;99860.33;;;21.01;50.77
77011;BME280;65945;53.148;17.956;2023-04-24T10:36:46;99863.40;;;21.04;50.92
77011;BME280;65945;53.148;17.956;2023-04-24T10:39:15;99865.41;;;21.09;50.66
77011;BME280;65945;53.148;17.956;2023-04-24T10:41:42;99860.73;;;21.23;50.77
77011;BME280;65945;53.148;17.956;2023-04-24T10:44:14;99857.43;;;21.41;50.60
77011;BME280;65945;53.148;17.956;2023-04-24T10:46:46;99863.59;;;21.65;50.08
77011;BME280;65945;53.148;17.956;2023-04-24T10:49:16;99863.92;;;21.93;49.71
77011;BME280;65945;53.148;17.956;2023-04-24T10:51:53;99857.02;;;22.19;49.47
77011;BME280;65945;53.148;17.956;2023-04-24T10:54:28;99857.20;;;22.44;48.68
77011;BME280;65945;53.148;17.956;2023-04-24T10:59:45;99861.96;;;22.80;47.59
77011;BME280;65945;53.148;17.956;2023-04-24T11:02:14;99866.83;;;22.79;47.11
77011;BME280;65945;53.148;17.956;2023-04-24T11:04:42;99860.96;;;22.77;47.42
77011;BME280;65945;53.148;17.956;2023-04-24T11:07:12;99864.21;;;22.83;47.45
77011;BME280;65945;53.148;17.956;2023-04-24T11:09:41;99861.44;;;22.96;47.32
77011;BME280;65945;53.148;17.956;2023-04-24T11:12:10;99864.82;;;23.06;46.47
77011;BME280;65945;53.148;17.956;2023-04-24T11:17:36;99861.16;;;23.32;46.56
77011;BME280;65945;53.148;17.956;2023-04-24T11:20:05;99857.06;;;23.36;46.50
77011;BME280;65945;53.148;17.956;2023-04-24T11:22:39;99855.89;;;23.44;46.25
77011;BME280;65945;53.148;17.956;2023-04-24T11:25:06;99858.14;;;23.55;46.17
77011;BME280;65945;53.148;17.956;2023-04-24T11:30:08;99863.18;;;23.50;45.72
77011;BME280;65945;53.148;17.956;2023-04-24T11:32:38;99871.02;;;23.46;45.72
77011;BME280;65945;53.148;17.956;2023-04-24T11:35:19;99872.84;;;23.41;45.98
77011;BME280;65945;53.148;17.956;2023-04-24T11:37:52;99870.71;;;23.33;46.16
77011;BME280;65945;53.148;17.956;2023-04-24T11:40:21;99872.05;;;23.23;45.91
77011;BME280;65945;53.148;17.956;2023-04-24T11:42:53;99874.48;;;23.16;44.57
77011;BME280;65945;53.148;17.956;2023-04-24T11:45:24;99872.42;;;23.05;43.80
77011;BME280;65945;53.148;17.956;2023-04-24T11:47:51;99876.66;;;22.95;43.88
77011;BME280;65945;53.148;17.956;2023-04-24T11:50:21;99875.04;;;22.91;44.65
77011;BME280;65945;53.148;17.956;2023-04-24T11:52:49;99868.23;;;22.93;44.47
77011;BME280;65945;53.148;17.956;2023-04-24T11:57:43;99866.41;;;22.98;43.51
77011;BME280;65945;53.148;17.956;2023-04-24T12:00:25;99865.95;;;22.88;43.99
77011;BME280;65945;53.148;17.956;2023-04-24T12:03:09;99867.13;;;22.82;43.99
77011;BME280;65945;53.148;17.956;2023-04-24T12:05:38;99862.75;;;22.77;44.14
77011;BME280;65945;53.148;17.956;2023-04-24T12:08:05;99856.35;;;22.71;44.02
77011;BME280;65945;53.148;17.956;2023-04-24T12:10:33;99855.41;;;22.70;44.48
77011;BME280;65945;53.148;17.956;2023-04-24T12:13:01;99850.75;;;22.73;44.32
77011;BME280;65945;53.148;17.956;2023-04-24T12:15:27;99851.95;;;22.76;44.71
77011;BME280;65945;53.148;17.956;2023-04-24T12:17:55;99847.98;;;22.74;44.90
77011;BME280;65945;53.148;17.956;2023-04-24T12:20:28;99850.83;;;22.73;45.07
77011;BME280;65945;53.148;17.956;2023-04-24T12:23:00;99850.02;;;22.76;44.86
77011;BME280;65945;53.148;17.956;2023-04-24T12:25:29;99862.59;;;22.71;44.77
77011;BME280;65945;53.148;17.956;2023-04-24T12:30:34;99853.91;;;22.44;45.72
77011;BME280;65945;53.148;17.956;2023-04-24T12:33:02;99850.44;;;22.30;45.53
77011;BME280;65945;53.148;17.956;2023-04-24T12:35:31;99848.92;;;22.23;46.28
77011;BME280;65945;53.148;17.956;2023-04-24T12:38:07;99845.34;;;22.27;46.25
77011;BME280;65945;53.148;17.956;2023-04-24T12:40:34;99843.22;;;22.29;46.16
77011;BME280;65945;53.148;17.956;2023-04-24T12:43:01;99844.82;;;22.26;45.86
77011;BME280;65945;53.148;17.956;2023-04-24T12:45:28;99840.41;;;22.21;46.16
77011;BME280;65945;53.148;17.956;2023-04-24T12:47:55;99838.79;;;22.17;46.41
77011;BME280;65945;53.148;17.956;2023-04-24T12:50:21;99838.35;;;22.12;46.86
77011;BME280;65945;53.148;17.956;2023-04-24T12:52:48;99835.48;;;22.14;47.01
77011;BME280;65945;53.148;17.956;2023-04-24T12:55:15;99833.80;;;22.25;46.92
77011;BME280;65945;53.148;17.956;2023-04-24T12:57:41;99827.00;;;22.40;46.61
77011;BME280;65945;53.148;17.956;2023-04-24T13:00:08;99828.06;;;22.52;46.47
77011;BME280;65945;53.148;17.956;2023-04-24T13:02:36;99830.92;;;22.58;46.09
77011;BME280;65945;53.148;17.956;2023-04-24T13:05:03;99828.90;;;22.57;45.79
77011;BME280;65945;53.148;17.956;2023-04-24T13:07:29;99824.09;;;22.54;45.50
77011;BME280;65945;53.148;17.956;2023-04-24T13:09:56;99818.60;;;22.47;45.64